Список аэропортов
Фактическая погода:

21 августа, 06:50
Температура: +21°C (+21.0*)
Ветер: сев.-восточный 3 м/с
Давление: *760 мм
Без существ. явл.
Время (МСК)Темп. СВетерВлажностьДавлениеОблачностьОсадки
03:00+23С, 5 м/с52%1014 гПас прояснениями
04:00+22С, 5 м/с55%1015 гПаясно
05:00+22СВ, 5 м/с58%1014 гПаясно
06:00+21СВ, 5 м/с61%1014 гПаясно
07:00+21СВ, 5 м/с60%1014 гПаясно
08:00+21СВ, 5 м/с59%1015 гПаясно
09:00+22СВ, 6 м/с54%1015 гПаясно
10:00+24СВ, 6 м/с45%1015 гПаясно
11:00+26СВ, 5 м/с38%1016 гПаясно
12:00+28СВ, 4 м/с32%1016 гПаясно
13:00+30СВ, 2 м/с29%1016 гПаясно
14:00+30С, 1 м/с26%1015 гПаясно
15:00+31З, 2 м/с26%1015 гПаясно
16:00+30З, 6 м/с38%1014 гПаясно
17:00+29З, 7 м/с43%1014 гПаясно
18:00+29З, 6 м/с45%1013 гПаясно
19:00+31СЗ, 4 м/с28%1013 гПаясно
20:00+30С, 8 м/с24%1013 гПаясно
21:00+28С, 7 м/с28%1014 гПаясно
22:00+27С, 8 м/с30%1014 гПаясно
23:00+26С, 7 м/с30%1015 гПаясно
22 августа
00:00+25С, 6 м/с33%1016 гПаясно
01:00+23С, 5 м/с36%1016 гПаясно
02:00+22С, 5 м/с38%1016 гПаясно
03:00+22С, 5 м/с39%1016 гПаясно
04:00+21СВ, 5 м/с42%1016 гПаясно
05:00+20СВ, 5 м/с46%1016 гПаясно
06:00+20СВ, 4 м/с51%1016 гПаясно
07:00+19СВ, 4 м/с56%1017 гПаясно
08:00+18СВ, 4 м/с59%1017 гПаясно
09:00+20СВ, 4 м/с54%1018 гПаясно
10:00+23СВ, 5 м/с43%1018 гПаясно
11:00+25СВ, 3 м/с36%1018 гПаясно
12:00+26СВ, 1 м/с33%1018 гПаясно
13:00+28СЗ, 1 м/с30%1018 гПаясно
14:00+29З, 3 м/с29%1017 гПаясно
15:00+29З, 5 м/с34%1017 гПаясно
16:00+28З, 7 м/с42%1016 гПаясно
17:00+27З, 8 м/с45%1016 гПаясно
18:00+27З, 8 м/с50%1016 гПаясно
19:00+26З, 8 м/с52%1016 гПаясно
20:00+27СЗ, 8 м/с48%1016 гПаясно
21:00+26СЗ, 7 м/с48%1016 гПаясно
22:00+25СЗ, 6 м/с50%1016 гПаясно
23:00+25СЗ, 6 м/с54%1017 гПаясно
23 августа
00:00+24СЗ, 4 м/с57%1017 гПаясно
01:00+23С, 3 м/с55%1017 гПаясно
02:00+22СВ, 2 м/с57%1017 гПаясно
03:00+21СВ, 2 м/с57%1018 гПаясно